createdAt,value
2017-05-16T00:00:56.239Z,1019.18
2017-05-16T00:01:57.669Z,1019.19
2017-05-16T00:02:59.098Z,1019.18
2017-05-16T00:04:00.526Z,1019.22
2017-05-16T00:05:01.959Z,1019.21
2017-05-16T00:06:03.388Z,1019.21
2017-05-16T00:07:04.811Z,1019.14
2017-05-16T00:08:06.241Z,1019.15
2017-05-16T00:09:07.668Z,1019.16
2017-05-16T00:10:09.097Z,1019.13
2017-05-16T00:11:10.536Z,1019.15
2017-05-16T00:12:11.971Z,1019.16
2017-05-16T00:13:13.401Z,1019.15
2017-05-16T00:14:14.829Z,1019.13
2017-05-16T00:15:16.257Z,1019.11
2017-05-16T00:16:17.683Z,1019.12
2017-05-16T00:17:19.111Z,1019.11
2017-05-16T00:18:20.541Z,1019.11
2017-05-16T00:19:21.974Z,1019.12
2017-05-16T00:20:23.399Z,1019.10
2017-05-16T00:21:24.835Z,1019.11
2017-05-16T00:22:26.269Z,1019.14
2017-05-16T00:23:27.698Z,1019.10
2017-05-16T00:24:29.128Z,1019.08
2017-05-16T00:25:30.556Z,1019.08
2017-05-16T00:26:31.992Z,1019.09
2017-05-16T00:27:33.421Z,1019.09
2017-05-16T00:28:34.854Z,1019.05
2017-05-16T00:29:36.279Z,1019.09
2017-05-16T00:30:37.710Z,1019.05
2017-05-16T00:31:39.138Z,1019.08
2017-05-16T00:32:40.561Z,1019.07
2017-05-16T00:33:41.993Z,1019.05
2017-05-16T00:34:43.428Z,1019.09
2017-05-16T00:35:44.859Z,1019.07
2017-05-16T00:36:46.284Z,1019.07
2017-05-16T00:37:47.719Z,1019.07
2017-05-16T00:38:49.143Z,1019.06
2017-05-16T00:39:50.582Z,1019.05
2017-05-16T00:40:52.020Z,1019.07
2017-05-16T00:41:53.469Z,1019.05
2017-05-16T00:42:54.907Z,1019.02
2017-05-16T00:43:56.336Z,1019.05
2017-05-16T00:44:57.771Z,1018.99
2017-05-16T00:45:59.204Z,1019.02
2017-05-16T00:47:00.638Z,1019.00
2017-05-16T00:48:02.066Z,1019.00
2017-05-16T00:49:03.492Z,1019.02
2017-05-16T00:50:04.960Z,1019.00
2017-05-16T00:51:06.385Z,1019.01
2017-05-16T00:52:07.815Z,1019.04
2017-05-16T00:53:09.251Z,1019.01
2017-05-16T00:54:10.768Z,1018.99
2017-05-16T00:55:12.193Z,1019.00
2017-05-16T00:56:13.635Z,1018.97
2017-05-16T00:57:15.065Z,1018.97
2017-05-16T00:58:16.497Z,1018.95
2017-05-16T00:59:17.926Z,1018.93
2017-05-16T01:00:19.364Z,1018.94
2017-05-16T01:01:20.790Z,1018.92
2017-05-16T01:02:22.219Z,1018.90
2017-05-16T01:03:23.649Z,1018.91
2017-05-16T01:04:25.086Z,1018.90
2017-05-16T01:05:26.623Z,1018.88
2017-05-16T01:06:28.054Z,1018.89
2017-05-16T01:07:29.478Z,1018.86
2017-05-16T01:08:30.961Z,1018.90
2017-05-16T01:09:32.397Z,1018.87
2017-05-16T01:10:33.835Z,1018.88
2017-05-16T01:11:35.267Z,1018.88
2017-05-16T01:12:36.694Z,1018.84
2017-05-16T01:13:39.024Z,1018.89
2017-05-16T01:14:40.456Z,1018.89
2017-05-16T01:15:41.883Z,1018.88
2017-05-16T01:16:44.233Z,1018.84
2017-05-16T01:17:45.662Z,1018.86
2017-05-16T01:18:47.581Z,1018.79
2017-05-16T01:19:49.009Z,1018.78
2017-05-16T01:20:50.437Z,1018.78
2017-05-16T01:21:51.860Z,1018.77
2017-05-16T01:22:53.994Z,1018.74
2017-05-16T01:23:55.428Z,1018.78
2017-05-16T01:24:56.864Z,1018.76
2017-05-16T01:25:58.291Z,1018.75
2017-05-16T01:26:59.731Z,1018.73
2017-05-16T01:28:01.166Z,1018.75
2017-05-16T01:29:02.586Z,1018.73
2017-05-16T01:30:04.015Z,1018.74
2017-05-16T01:31:05.446Z,1018.64
2017-05-16T01:32:06.882Z,1018.70
2017-05-16T01:33:08.312Z,1018.70
2017-05-16T01:34:09.742Z,1018.62
2017-05-16T01:35:11.172Z,1018.64
2017-05-16T01:36:12.594Z,1018.66
2017-05-16T01:37:14.025Z,1018.58
2017-05-16T01:38:15.456Z,1018.60
2017-05-16T01:39:16.884Z,1018.55
2017-05-16T01:40:18.314Z,1018.54
2017-05-16T01:41:19.742Z,1018.56
2017-05-16T01:42:21.172Z,1018.52
2017-05-16T01:43:22.621Z,1018.54
2017-05-16T01:44:24.028Z,1018.54
2017-05-16T01:45:25.464Z,1018.54
2017-05-16T01:46:26.888Z,1018.56
2017-05-16T01:47:28.316Z,1018.50
2017-05-16T01:48:29.745Z,1018.49
2017-05-16T01:49:31.175Z,1018.53
2017-05-16T01:50:32.604Z,1018.48
2017-05-16T01:51:34.034Z,1018.51
2017-05-16T01:52:35.462Z,1018.44
2017-05-16T01:53:36.888Z,1018.43
2017-05-16T01:54:38.315Z,1018.46
2017-05-16T01:55:39.750Z,1018.49
2017-05-16T01:56:41.179Z,1018.49
2017-05-16T01:57:42.609Z,1018.45
2017-05-16T01:58:44.040Z,1018.46
2017-05-16T01:59:45.473Z,1018.43
2017-05-16T02:00:47.373Z,1018.48
2017-05-16T02:01:48.266Z,1018.42
2017-05-16T02:02:49.699Z,1018.44
2017-05-16T02:03:51.140Z,1018.46
2017-05-16T02:04:52.570Z,1018.42
2017-05-16T02:05:54.001Z,1018.44
2017-05-16T02:06:55.422Z,1018.43
2017-05-16T02:07:56.903Z,1018.44
2017-05-16T02:08:58.280Z,1018.47
2017-05-16T02:09:59.715Z,1018.46
2017-05-16T02:11:01.147Z,1018.45
2017-05-16T02:12:02.572Z,1018.44
2017-05-16T02:13:04.000Z,1018.42
2017-05-16T02:14:05.450Z,1018.42
2017-05-16T02:15:07.787Z,1018.38
2017-05-16T02:16:09.216Z,1018.37
2017-05-16T02:17:10.650Z,1018.39
2017-05-16T02:18:12.080Z,1018.38
2017-05-16T02:19:13.507Z,1018.37
2017-05-16T02:20:14.935Z,1018.34
2017-05-16T02:21:16.364Z,1018.39
2017-05-16T02:22:17.788Z,1018.34
2017-05-16T02:23:19.219Z,1018.35
2017-05-16T02:24:20.663Z,1018.37
2017-05-16T02:25:22.091Z,1018.35
2017-05-16T02:26:23.510Z,1018.35
2017-05-16T02:27:24.934Z,1018.35
2017-05-16T02:28:26.377Z,1018.33
2017-05-16T02:29:27.810Z,1018.38
2017-05-16T02:30:29.253Z,1018.36
2017-05-16T02:31:30.680Z,1018.38
2017-05-16T02:32:32.114Z,1018.36
2017-05-16T02:33:33.544Z,1018.35
2017-05-16T02:34:34.981Z,1018.38
2017-05-16T02:35:36.405Z,1018.36
2017-05-16T02:36:37.830Z,1018.38
2017-05-16T02:37:39.261Z,1018.39
2017-05-16T02:38:40.691Z,1018.37
2017-05-16T02:39:42.129Z,1018.36
2017-05-16T02:40:43.572Z,1018.35
2017-05-16T02:41:44.999Z,1018.38
2017-05-16T02:42:46.421Z,1018.31
2017-05-16T02:43:47.853Z,1018.33
2017-05-16T02:44:49.280Z,1018.36
2017-05-16T02:45:50.726Z,1018.35
2017-05-16T02:46:52.160Z,1018.38
2017-05-16T02:47:53.598Z,1018.38
2017-05-16T02:48:55.032Z,1018.34
2017-05-16T02:49:56.468Z,1018.37
2017-05-16T02:50:57.891Z,1018.37
2017-05-16T02:51:59.319Z,1018.38
2017-05-16T02:53:00.754Z,1018.33
2017-05-16T02:54:02.208Z,1018.35
2017-05-16T02:55:03.619Z,1018.36
2017-05-16T02:56:05.053Z,1018.38
2017-05-16T02:57:06.481Z,1018.41
2017-05-16T02:58:07.914Z,1018.42
2017-05-16T02:59:09.341Z,1018.36
2017-05-16T03:00:10.778Z,1018.34
2017-05-16T03:01:12.206Z,1018.36
2017-05-16T03:02:13.638Z,1018.36
2017-05-16T03:03:15.073Z,1018.40
2017-05-16T03:04:16.501Z,1018.36
2017-05-16T03:05:17.944Z,1018.34
2017-05-16T03:06:19.373Z,1018.41
2017-05-16T03:07:20.801Z,1018.36
2017-05-16T03:08:22.239Z,1018.33
2017-05-16T03:09:23.670Z,1018.35
2017-05-16T03:10:25.084Z,1018.34
2017-05-16T03:11:26.514Z,1018.36
2017-05-16T03:12:27.940Z,1018.37
2017-05-16T03:13:29.368Z,1018.38
2017-05-16T03:14:30.803Z,1018.41
2017-05-16T03:15:32.233Z,1018.38
2017-05-16T03:16:34.230Z,1018.37
2017-05-16T03:17:35.658Z,1018.39
2017-05-16T03:18:37.094Z,1018.34
2017-05-16T03:19:38.513Z,1018.39
2017-05-16T03:20:39.952Z,1018.37
2017-05-16T03:21:41.383Z,1018.39
2017-05-16T03:22:42.811Z,1018.37
2017-05-16T03:23:44.246Z,1018.37
2017-05-16T03:24:45.672Z,1018.39
2017-05-16T03:25:47.099Z,1018.40
2017-05-16T03:26:48.524Z,1018.41
2017-05-16T03:27:49.948Z,1018.39
2017-05-16T03:28:51.384Z,1018.39
2017-05-16T03:29:52.810Z,1018.39
2017-05-16T03:30:54.245Z,1018.36
2017-05-16T03:31:55.669Z,1018.36
2017-05-16T03:32:57.117Z,1018.35
2017-05-16T03:33:58.569Z,1018.35
2017-05-16T03:34:59.993Z,1018.29
2017-05-16T03:36:01.423Z,1018.33
2017-05-16T03:37:02.873Z,1018.29
2017-05-16T03:38:04.306Z,1018.35
2017-05-16T03:39:05.723Z,1018.31
2017-05-16T03:40:07.177Z,1018.31
2017-05-16T03:41:08.617Z,1018.30
2017-05-16T03:42:10.048Z,1018.28
2017-05-16T03:43:11.476Z,1018.30
2017-05-16T03:44:12.917Z,1018.30
2017-05-16T03:45:14.349Z,1018.31
2017-05-16T03:46:15.781Z,1018.33
2017-05-16T03:47:17.213Z,1018.31
2017-05-16T03:48:18.638Z,1018.33
2017-05-16T03:49:20.069Z,1018.33
2017-05-16T03:50:21.508Z,1018.39
2017-05-16T03:51:22.936Z,1018.37
2017-05-16T03:52:24.361Z,1018.36
2017-05-16T03:53:26.620Z,1018.35
2017-05-16T03:54:28.055Z,1018.34
2017-05-16T03:55:29.485Z,1018.33
2017-05-16T03:56:30.946Z,1018.34
2017-05-16T03:57:32.374Z,1018.35
2017-05-16T03:58:33.806Z,1018.39
2017-05-16T03:59:35.242Z,1018.37
2017-05-16T04:00:36.674Z,1018.39
2017-05-16T04:01:38.103Z,1018.38
2017-05-16T04:02:39.537Z,1018.34
2017-05-16T04:03:40.970Z,1018.39
2017-05-16T04:04:42.392Z,1018.37
2017-05-16T04:05:43.822Z,1018.41
2017-05-16T04:06:45.251Z,1018.41
2017-05-16T04:07:46.791Z,1018.40
2017-05-16T04:08:48.224Z,1018.44
2017-05-16T04:09:49.659Z,1018.38
2017-05-16T04:10:51.085Z,1018.41
2017-05-16T04:11:52.527Z,1018.42
2017-05-16T04:12:53.959Z,1018.45
2017-05-16T04:13:55.400Z,1018.40
2017-05-16T04:14:56.844Z,1018.39
2017-05-16T04:15:58.274Z,1018.40
2017-05-16T04:16:59.708Z,1018.39
2017-05-16T04:18:01.139Z,1018.37
2017-05-16T04:19:02.569Z,1018.39
2017-05-16T04:20:04.014Z,1018.37
2017-05-16T04:21:05.455Z,1018.37
2017-05-16T04:22:06.882Z,1018.36
2017-05-16T04:23:08.314Z,1018.36
2017-05-16T04:24:09.747Z,1018.35
2017-05-16T04:25:11.194Z,1018.38
2017-05-16T04:26:12.709Z,1018.31
2017-05-16T04:27:15.018Z,1018.38
2017-05-16T04:28:16.449Z,1018.35
2017-05-16T04:29:17.885Z,1018.31
2017-05-16T04:30:19.323Z,1018.33
2017-05-16T04:31:20.748Z,1018.35
2017-05-16T04:32:22.189Z,1018.36
2017-05-16T04:33:23.623Z,1018.38
2017-05-16T04:34:25.050Z,1018.40
2017-05-16T04:35:26.533Z,1018.39
2017-05-16T04:36:27.968Z,1018.39
2017-05-16T04:37:29.401Z,1018.37
2017-05-16T04:38:30.921Z,1018.41
2017-05-16T04:39:32.359Z,1018.37
2017-05-16T04:40:33.808Z,1018.44
2017-05-16T04:41:35.234Z,1018.39
2017-05-16T04:42:36.668Z,1018.39
2017-05-16T04:43:38.103Z,1018.41
2017-05-16T04:44:39.537Z,1018.38
2017-05-16T04:45:40.970Z,1018.36
2017-05-16T04:46:42.408Z,1018.38
2017-05-16T04:47:43.846Z,1018.39
2017-05-16T04:48:45.283Z,1018.40
2017-05-16T04:49:46.729Z,1018.42
2017-05-16T04:50:48.153Z,1018.39
2017-05-16T04:51:49.583Z,1018.40
2017-05-16T04:52:51.032Z,1018.44
2017-05-16T04:53:52.512Z,1018.46
2017-05-16T04:54:53.940Z,1018.43
2017-05-16T04:55:55.467Z,1018.44
2017-05-16T04:56:56.896Z,1018.42
2017-05-16T04:57:58.333Z,1018.45
2017-05-16T04:58:59.769Z,1018.43
2017-05-16T05:00:01.264Z,1018.49
2017-05-16T05:01:02.730Z,1018.48
2017-05-16T05:02:04.163Z,1018.50
2017-05-16T05:03:05.604Z,1018.50
2017-05-16T05:04:07.067Z,1018.46
2017-05-16T05:05:08.502Z,1018.50
2017-05-16T05:06:09.931Z,1018.49
2017-05-16T05:07:11.392Z,1018.49
2017-05-16T05:08:12.898Z,1018.51
2017-05-16T05:09:14.331Z,1018.52
2017-05-16T05:10:15.775Z,1018.53
2017-05-16T05:11:17.214Z,1018.52
2017-05-16T05:12:18.645Z,1018.50
2017-05-16T05:13:20.075Z,1018.53
2017-05-16T05:14:21.526Z,1018.54
2017-05-16T05:15:22.957Z,1018.50
2017-05-16T05:16:24.397Z,1018.51
2017-05-16T05:17:25.827Z,1018.56
2017-05-16T05:18:27.264Z,1018.55
2017-05-16T05:19:28.693Z,1018.54
2017-05-16T05:20:30.125Z,1018.53
2017-05-16T05:21:31.559Z,1018.52
2017-05-16T05:22:32.999Z,1018.54
2017-05-16T05:23:34.432Z,1018.56
2017-05-16T05:24:35.867Z,1018.56
2017-05-16T05:25:37.306Z,1018.56
2017-05-16T05:26:38.739Z,1018.60
2017-05-16T05:27:40.176Z,1018.61
2017-05-16T05:28:41.614Z,1018.62
2017-05-16T05:29:43.076Z,1018.60
2017-05-16T05:30:44.516Z,1018.61
2017-05-16T05:31:45.952Z,1018.60
2017-05-16T05:32:47.396Z,1018.59
2017-05-16T05:33:48.857Z,1018.62
2017-05-16T05:34:50.309Z,1018.62
2017-05-16T05:35:51.746Z,1018.64
2017-05-16T05:36:53.182Z,1018.65
2017-05-16T05:37:54.621Z,1018.62
2017-05-16T05:38:56.055Z,1018.64
2017-05-16T05:39:57.487Z,1018.60
2017-05-16T05:40:59.055Z,1018.63
2017-05-16T05:42:00.489Z,1018.63
2017-05-16T05:43:01.921Z,1018.61
2017-05-16T05:44:03.342Z,1018.61
2017-05-16T05:45:04.796Z,1018.66
2017-05-16T05:46:06.233Z,1018.63
2017-05-16T05:47:07.661Z,1018.67
2017-05-16T05:48:09.136Z,1018.63
2017-05-16T05:49:10.566Z,1018.63
2017-05-16T05:50:12.656Z,1018.65
2017-05-16T05:51:14.105Z,1018.65
2017-05-16T05:52:15.537Z,1018.73
2017-05-16T05:53:16.969Z,1018.69
2017-05-16T05:54:18.403Z,1018.72
2017-05-16T05:55:19.839Z,1018.74
2017-05-16T05:56:21.272Z,1018.73
2017-05-16T05:57:22.706Z,1018.76
2017-05-16T05:58:24.137Z,1018.75
2017-05-16T05:59:25.573Z,1018.76
2017-05-16T06:00:27.006Z,1018.81
2017-05-16T06:01:28.443Z,1018.82
2017-05-16T06:02:30.580Z,1018.81
2017-05-16T06:03:32.015Z,1018.85
2017-05-16T06:04:33.445Z,1018.81
2017-05-16T06:05:34.874Z,1018.87
2017-05-16T06:06:36.309Z,1018.83
2017-05-16T06:07:37.739Z,1018.84
2017-05-16T06:08:39.177Z,1018.83
2017-05-16T06:09:40.665Z,1018.84
2017-05-16T06:10:42.090Z,1018.83
2017-05-16T06:11:43.522Z,1018.85
2017-05-16T06:12:44.960Z,1018.85
2017-05-16T06:13:46.391Z,1018.85
2017-05-16T06:14:47.847Z,1018.85
2017-05-16T06:15:49.276Z,1018.88
2017-05-16T06:16:50.705Z,1018.89
2017-05-16T06:17:52.147Z,1018.89
2017-05-16T06:18:53.591Z,1018.91
2017-05-16T06:19:55.027Z,1018.91
2017-05-16T06:20:56.459Z,1018.98
2017-05-16T06:21:57.891Z,1018.91
2017-05-16T06:22:59.330Z,1018.92
2017-05-16T06:24:00.765Z,1018.90
2017-05-16T06:25:02.219Z,1018.99
2017-05-16T06:26:03.652Z,1019.00
2017-05-16T06:27:05.092Z,1019.01
2017-05-16T06:28:06.524Z,1019.00
2017-05-16T06:29:07.953Z,1018.95
2017-05-16T06:30:09.398Z,1019.00
2017-05-16T06:31:10.840Z,1019.03
2017-05-16T06:32:12.682Z,1018.97
2017-05-16T06:33:14.119Z,1018.96
2017-05-16T06:34:15.548Z,1018.97
2017-05-16T06:35:16.984Z,1019.02
2017-05-16T06:36:18.422Z,1019.03
2017-05-16T06:37:19.859Z,1019.00
2017-05-16T06:38:21.290Z,1019.06
2017-05-16T06:39:22.761Z,1019.04
2017-05-16T06:40:24.196Z,1019.04
2017-05-16T06:41:25.639Z,1019.02
2017-05-16T06:42:27.065Z,1019.07
2017-05-16T06:43:29.773Z,1019.06
2017-05-16T06:44:31.219Z,1019.03
2017-05-16T06:45:32.653Z,1019.11
2017-05-16T06:46:34.725Z,1019.13
2017-05-16T06:47:36.158Z,1019.19
2017-05-16T06:48:37.595Z,1019.16
2017-05-16T06:49:39.039Z,1019.18
2017-05-16T06:50:40.471Z,1019.16
2017-05-16T06:51:41.930Z,1019.21
2017-05-16T06:52:43.345Z,1019.21
2017-05-16T06:53:44.775Z,1019.24
2017-05-16T06:54:46.212Z,1019.27
2017-05-16T06:55:47.647Z,1019.19
2017-05-16T06:56:49.087Z,1019.23
2017-05-16T06:57:51.459Z,1019.20
2017-05-16T06:58:52.892Z,1019.21
2017-05-16T06:59:54.325Z,1019.17
2017-05-16T07:00:55.752Z,1019.16
2017-05-16T07:01:57.197Z,1019.17
2017-05-16T07:02:58.632Z,1019.17
2017-05-16T07:04:00.074Z,1019.15
2017-05-16T07:05:01.513Z,1019.15
2017-05-16T07:06:02.956Z,1019.18
2017-05-16T07:07:04.960Z,1019.20
2017-05-16T07:08:06.395Z,1019.13
2017-05-16T07:09:07.827Z,1019.15
2017-05-16T07:10:09.265Z,1019.14
2017-05-16T07:11:10.709Z,1019.14
2017-05-16T07:12:12.146Z,1019.18
2017-05-16T07:13:13.592Z,1019.23
2017-05-16T07:14:15.025Z,1019.22
2017-05-16T07:15:16.467Z,1019.24
2017-05-16T07:16:17.926Z,1019.18
2017-05-16T07:17:19.373Z,1019.16
2017-05-16T07:18:20.806Z,1019.15
2017-05-16T07:19:22.242Z,1019.15
2017-05-16T07:20:23.695Z,1019.13
2017-05-16T07:21:25.132Z,1019.18
2017-05-16T07:22:26.583Z,1019.18
2017-05-16T07:23:28.012Z,1019.16
2017-05-16T07:24:29.449Z,1019.20
2017-05-16T07:25:30.893Z,1019.21
2017-05-16T07:26:32.328Z,1019.20
2017-05-16T07:27:33.758Z,1019.18
2017-05-16T07:28:35.196Z,1019.13
2017-05-16T07:29:36.636Z,1019.15
2017-05-16T07:30:38.076Z,1019.21
2017-05-16T07:31:39.515Z,1019.21
2017-05-16T07:32:40.952Z,1019.21
2017-05-16T07:33:42.397Z,1019.21
2017-05-16T07:34:43.831Z,1019.19
2017-05-16T07:35:45.270Z,1019.21
2017-05-16T07:36:46.699Z,1019.20
2017-05-16T07:37:48.146Z,1019.17
2017-05-16T07:38:49.582Z,1019.19
2017-05-16T07:39:51.027Z,1019.20
2017-05-16T07:40:52.478Z,1019.23
2017-05-16T07:41:53.917Z,1019.19
2017-05-16T07:42:55.356Z,1019.18
2017-05-16T07:43:56.796Z,1019.19
2017-05-16T07:44:58.240Z,1019.17
2017-05-16T07:45:59.673Z,1019.13
2017-05-16T07:47:01.111Z,1019.18
2017-05-16T07:48:02.553Z,1019.15
2017-05-16T07:49:03.992Z,1019.20
2017-05-16T07:50:05.434Z,1019.14
2017-05-16T07:51:06.870Z,1019.13
2017-05-16T07:52:08.316Z,1019.11
2017-05-16T07:53:09.760Z,1019.13
2017-05-16T07:54:11.196Z,1019.17
2017-05-16T07:55:12.630Z,1019.19
2017-05-16T07:56:14.063Z,1019.18
2017-05-16T07:57:15.503Z,1019.14
2017-05-16T07:58:16.938Z,1019.20
2017-05-16T07:59:18.375Z,1019.20
2017-05-16T08:00:19.817Z,1019.20
2017-05-16T08:01:21.256Z,1019.17
2017-05-16T08:02:22.694Z,1019.20
2017-05-16T08:03:24.131Z,1019.16
2017-05-16T08:04:25.565Z,1019.19
2017-05-16T08:05:27.008Z,1019.20
2017-05-16T08:06:28.462Z,1019.21
2017-05-16T08:07:29.888Z,1019.25
2017-05-16T08:08:31.323Z,1019.21
2017-05-16T08:09:32.766Z,1019.24
2017-05-16T08:10:34.264Z,1019.26
2017-05-16T08:11:35.646Z,1019.23
2017-05-16T08:12:37.087Z,1019.28
2017-05-16T08:13:38.524Z,1019.25
2017-05-16T08:14:39.966Z,1019.27
2017-05-16T08:15:41.401Z,1019.20
2017-05-16T08:16:42.874Z,1019.24
2017-05-16T08:17:44.312Z,1019.25
2017-05-16T08:18:45.758Z,1019.18
2017-05-16T08:19:47.197Z,1019.16
2017-05-16T08:20:48.643Z,1019.15
2017-05-16T08:21:50.087Z,1019.16
2017-05-16T08:22:51.531Z,1019.15
2017-05-16T08:23:52.971Z,1019.12
2017-05-16T08:24:54.404Z,1019.12
2017-05-16T08:25:55.846Z,1019.13
2017-05-16T08:26:57.290Z,1019.10
2017-05-16T08:27:58.723Z,1019.09
2017-05-16T08:29:00.168Z,1019.09
2017-05-16T08:30:01.609Z,1019.07
2017-05-16T08:31:03.046Z,1019.04
2017-05-16T08:32:04.483Z,1018.97
2017-05-16T08:33:05.926Z,1019.04
2017-05-16T08:34:07.364Z,1019.06
2017-05-16T08:35:08.805Z,1019.05
2017-05-16T08:36:10.243Z,1019.05
2017-05-16T08:37:11.690Z,1019.01
2017-05-16T08:38:13.132Z,1019.07
2017-05-16T08:39:14.570Z,1019.08
2017-05-16T08:40:16.018Z,1019.10
2017-05-16T08:41:17.455Z,1019.05
2017-05-16T08:42:18.900Z,1019.04
2017-05-16T08:43:21.196Z,1019.02
2017-05-16T08:44:22.628Z,1019.01
2017-05-16T08:45:24.069Z,1019.04
2017-05-16T08:46:25.534Z,1019.08
2017-05-16T08:47:26.978Z,1019.00
2017-05-16T08:48:28.414Z,1019.02
2017-05-16T08:49:29.883Z,1018.98
2017-05-16T08:50:31.299Z,1019.00
2017-05-16T08:51:32.735Z,1019.02
2017-05-16T08:52:34.697Z,1018.99
2017-05-16T08:53:36.140Z,1019.05
2017-05-16T08:54:37.577Z,1019.01
2017-05-16T08:55:39.007Z,1019.00
2017-05-16T08:56:40.458Z,1019.02
2017-05-16T08:57:41.894Z,1018.97
2017-05-16T08:58:43.337Z,1018.95
2017-05-16T08:59:44.774Z,1018.96
2017-05-16T09:00:46.216Z,1018.93
2017-05-16T09:01:47.662Z,1018.94
2017-05-16T09:02:49.098Z,1018.94
2017-05-16T09:03:50.535Z,1018.98
2017-05-16T09:04:51.971Z,1019.01
2017-05-16T09:05:54.336Z,1018.97
2017-05-16T09:06:55.777Z,1018.97
2017-05-16T09:07:57.220Z,1018.97
2017-05-16T09:08:58.667Z,1019.04
2017-05-16T09:10:00.116Z,1019.00
2017-05-16T09:11:01.557Z,1018.99
2017-05-16T09:12:02.996Z,1019.00
2017-05-16T09:13:04.443Z,1018.97
2017-05-16T09:14:05.923Z,1019.01
2017-05-16T09:15:07.351Z,1019.01
2017-05-16T09:16:08.792Z,1019.01
2017-05-16T09:17:11.725Z,1019.02
2017-05-16T09:18:13.165Z,1019.05
2017-05-16T09:19:14.607Z,1019.06
2017-05-16T09:20:16.572Z,1019.02
2017-05-16T09:21:18.017Z,1019.04
2017-05-16T09:22:19.452Z,1019.03
2017-05-16T09:23:20.892Z,1019.03
2017-05-16T09:24:22.331Z,1019.00
2017-05-16T09:25:23.775Z,1018.98
2017-05-16T09:26:25.220Z,1019.00
2017-05-16T09:27:26.652Z,1018.95
2017-05-16T09:28:28.090Z,1018.96
2017-05-16T09:29:29.528Z,1018.96
2017-05-16T09:30:30.965Z,1018.95
2017-05-16T09:31:32.414Z,1018.93
2017-05-16T09:32:33.846Z,1018.93
2017-05-16T09:33:35.284Z,1018.94
2017-05-16T09:34:36.719Z,1018.90
2017-05-16T09:35:38.166Z,1018.89
2017-05-16T09:36:39.600Z,1018.87
2017-05-16T09:37:41.047Z,1018.91
2017-05-16T09:38:42.479Z,1018.94
2017-05-16T09:39:43.930Z,1018.88
2017-05-16T09:40:45.375Z,1018.89
2017-05-16T09:41:46.824Z,1018.95
2017-05-16T09:42:48.399Z,1018.90
2017-05-16T09:43:49.839Z,1018.88
2017-05-16T09:44:51.275Z,1018.91
2017-05-16T09:45:52.718Z,1018.92
2017-05-16T09:46:54.165Z,1018.84
2017-05-16T09:47:55.604Z,1018.89
2017-05-16T09:48:57.046Z,1018.85
2017-05-16T09:49:58.479Z,1018.81
2017-05-16T09:50:59.916Z,1018.83
2017-05-16T09:52:01.357Z,1018.78
2017-05-16T09:53:02.793Z,1018.83
2017-05-16T09:54:04.237Z,1018.78
2017-05-16T09:55:05.680Z,1018.75
2017-05-16T09:56:07.115Z,1018.78
2017-05-16T09:57:08.557Z,1018.74
2017-05-16T09:58:09.996Z,1018.78
2017-05-16T09:59:11.438Z,1018.80
2017-05-16T10:00:12.882Z,1018.76
2017-05-16T10:01:14.317Z,1018.77
2017-05-16T10:02:15.780Z,1018.77
2017-05-16T10:03:17.221Z,1018.79
2017-05-16T10:04:18.671Z,1018.79
2017-05-16T10:05:20.105Z,1018.80
2017-05-16T10:06:21.551Z,1018.76
2017-05-16T10:07:22.984Z,1018.75
2017-05-16T10:08:24.424Z,1018.72
2017-05-16T10:09:25.867Z,1018.70
2017-05-16T10:10:27.330Z,1018.68
2017-05-16T10:11:28.776Z,1018.69
2017-05-16T10:12:30.209Z,1018.67
2017-05-16T10:13:31.646Z,1018.69
2017-05-16T10:14:33.083Z,1018.70
2017-05-16T10:15:34.522Z,1018.69
2017-05-16T10:16:35.971Z,1018.72
2017-05-16T10:17:37.407Z,1018.66
2017-05-16T10:18:38.849Z,1018.65
2017-05-16T10:19:40.287Z,1018.66
2017-05-16T10:20:41.739Z,1018.64
2017-05-16T10:21:43.175Z,1018.63
2017-05-16T10:22:44.622Z,1018.63
2017-05-16T10:23:46.071Z,1018.62
2017-05-16T10:24:47.513Z,1018.59
2017-05-16T10:25:48.949Z,1018.62
2017-05-16T10:26:50.394Z,1018.60
2017-05-16T10:27:51.837Z,1018.56
2017-05-16T10:28:53.275Z,1018.50
2017-05-16T10:29:54.721Z,1018.56
2017-05-16T10:30:56.156Z,1018.57
2017-05-16T10:31:57.606Z,1018.59
2017-05-16T10:32:59.050Z,1018.56
2017-05-16T10:34:00.506Z,1018.54
2017-05-16T10:35:01.952Z,1018.53
2017-05-16T10:36:42.884Z,1018.50
2017-05-16T10:37:44.316Z,1018.48
2017-05-16T10:38:45.761Z,1018.53
2017-05-16T10:39:47.195Z,1018.47
2017-05-16T10:40:48.631Z,1018.54
2017-05-16T10:41:50.075Z,1018.50
2017-05-16T10:42:51.520Z,1018.51
2017-05-16T10:43:52.961Z,1018.47
2017-05-16T10:44:55.306Z,1018.44
2017-05-16T10:45:56.742Z,1018.42
2017-05-16T10:46:58.180Z,1018.39
2017-05-16T10:47:59.624Z,1018.40
2017-05-16T10:49:01.081Z,1018.43
2017-05-16T10:50:02.514Z,1018.40
2017-05-16T10:51:03.952Z,1018.42
2017-05-16T10:52:05.392Z,1018.42
2017-05-16T10:53:06.835Z,1018.49
2017-05-16T10:54:08.281Z,1018.41
2017-05-16T10:55:09.715Z,1018.38
2017-05-16T10:56:11.153Z,1018.40
2017-05-16T10:57:12.595Z,1018.39
2017-05-16T10:58:14.747Z,1018.36
2017-05-16T10:59:16.186Z,1018.38
2017-05-16T11:00:17.622Z,1018.36
2017-05-16T11:01:19.062Z,1018.35
2017-05-16T11:02:20.509Z,1018.37
2017-05-16T11:03:21.946Z,1018.40
2017-05-16T11:04:23.408Z,1018.43
2017-05-16T11:05:24.846Z,1018.43
2017-05-16T11:06:26.298Z,1018.37
2017-05-16T11:07:27.750Z,1018.34
2017-05-16T11:08:29.195Z,1018.32
2017-05-16T11:09:30.638Z,1018.30
2017-05-16T11:10:32.073Z,1018.24
2017-05-16T11:11:33.534Z,1018.17
2017-05-16T11:12:34.973Z,1018.15
2017-05-16T11:13:36.408Z,1018.17
2017-05-16T11:14:37.847Z,1018.14
2017-05-16T11:15:39.296Z,1018.13
2017-05-16T11:16:40.732Z,1018.19
2017-05-16T11:17:42.172Z,1018.12
2017-05-16T11:18:43.620Z,1018.12
2017-05-16T11:19:45.064Z,1018.11
2017-05-16T11:20:46.506Z,1018.13
2017-05-16T11:21:47.949Z,1018.13
2017-05-16T11:22:49.381Z,1018.13
2017-05-16T11:23:50.827Z,1018.08
2017-05-16T11:24:52.266Z,1018.09
2017-05-16T11:25:53.708Z,1018.05
2017-05-16T11:26:55.152Z,1018.07
2017-05-16T11:27:56.591Z,1018.06
2017-05-16T11:28:58.035Z,1018.06
2017-05-16T11:29:59.476Z,1018.06
2017-05-16T11:31:00.917Z,1018.06
2017-05-16T11:32:02.356Z,1018.05
2017-05-16T11:33:03.804Z,1018.01
2017-05-16T11:34:05.246Z,1017.94
2017-05-16T11:35:06.693Z,1017.88
2017-05-16T11:36:08.131Z,1017.94
2017-05-16T11:37:09.574Z,1017.95
2017-05-16T11:38:11.011Z,1017.95
2017-05-16T11:39:12.457Z,1017.89
2017-05-16T11:40:13.897Z,1017.88
2017-05-16T11:41:15.333Z,1017.84
2017-05-16T11:42:16.777Z,1017.95
2017-05-16T11:43:18.221Z,1017.92
2017-05-16T11:44:19.670Z,1017.91
2017-05-16T11:45:21.105Z,1017.86
2017-05-16T11:46:22.548Z,1017.79
2017-05-16T11:47:23.996Z,1017.80
2017-05-16T11:48:25.440Z,1017.82
2017-05-16T11:49:26.881Z,1017.85
2017-05-16T11:50:28.331Z,1017.85
2017-05-16T11:51:29.772Z,1017.86
2017-05-16T11:52:31.213Z,1017.88
2017-05-16T11:53:32.649Z,1017.87
2017-05-16T11:54:34.096Z,1017.86
2017-05-16T11:55:35.529Z,1017.83
2017-05-16T11:56:36.984Z,1017.86
2017-05-16T11:57:38.426Z,1017.85
2017-05-16T11:58:39.886Z,1017.82
2017-05-16T11:59:41.331Z,1017.81
2017-05-16T12:00:42.771Z,1017.79
2017-05-16T12:01:44.218Z,1017.73
2017-05-16T12:02:45.653Z,1017.78
2017-05-16T12:03:47.093Z,1017.77
2017-05-16T12:04:48.540Z,1017.72
2017-05-16T12:05:50.025Z,1017.77
2017-05-16T12:06:51.437Z,1017.71
2017-05-16T12:07:52.884Z,1017.75
2017-05-16T12:08:54.326Z,1017.70
2017-05-16T12:09:55.767Z,1017.77
2017-05-16T12:10:57.208Z,1017.68
2017-05-16T12:11:58.653Z,1017.74
2017-05-16T12:13:00.094Z,1017.71
2017-05-16T12:14:01.525Z,1017.68
2017-05-16T12:15:02.976Z,1017.70
2017-05-16T12:16:04.411Z,1017.72
2017-05-16T12:17:05.851Z,1017.74
2017-05-16T12:18:07.297Z,1017.81
2017-05-16T12:19:08.736Z,1017.73
2017-05-16T12:20:10.181Z,1017.70
2017-05-16T12:21:11.614Z,1017.68
2017-05-16T12:22:13.055Z,1017.73
2017-05-16T12:23:15.946Z,1017.68
2017-05-16T12:24:16.390Z,1017.70